Главная страница
METAR-TAF:

METAR-TAF

Аэропорты :

Савонлинна, Финляндия

широта: 61-57N, долгота: 028-57E, высота над уровнем моря: 95 м

Текущие метеонаблюдения

Эта сводка был подготовлена 18 минут назад, в 16:50 UTC
Ветер 6 Узел от северный, изменяющийся между северо-западный и северо-восточный
Температура 8°C
Влажность 93%
Давление 1009 hPa
Видимость: 3800 м
Сплошная облачность на высоте 500 фута
небольшие ливневые дожди, дымка

METAR: EFSA 191650Z AUTO 35006KT 310V040 3800 -SHRA BR OVC005 08/07 Q1009

Время: 20:08 (17:08 UTC)

Прогноз

Эта сводка был подготовлена 2 часа и 38 минут назад, в 14:30 UTC
Прогноз действительный с 19-го 15 UTC до 19-го 21 UTC
Ветер 7 Узел от северно-северо-западный
Видимость 10 км и более
Рассеянная облачность на высоте 1400 фута
временами
С 19-го 15 UTC до 19-го 18 UTC
Видимость: 6000 м
Рассеянная облачность на высоте 900 фута
небольшой дождь

TAF: EFSA 191430Z 1915/1921 33007KT 9999 BKN014 TEMPO 1915/1918 6000 -RA BKN009

Метеонаблюдения и прогнозы для более 4000 аэропортов (сводки METAR и TAF).

Имеющиеся станции представлены на карте желтыми и красными точками.

Чтобы увидеть название станции, наведите на нее мышь.

Затем щелкните, чтобы увидеть метеонаблюдения и метеопрогнозы.

Управление картой: чтобы увеличить масштаб, щелкните зеленые кнопки с черным крестиком; чтобы уменьшить масштаб, щелкните зеленую кнопку с тире; для просмотра соседних карт щелкайте зеленые стрелки.


METAR-TAF: